createdAt,value
2023-02-27T00:00:16.969Z,29.751
2023-02-27T00:05:16.851Z,29.757
2023-02-27T00:10:16.795Z,29.758
2023-02-27T00:15:16.770Z,29.756
2023-02-27T00:20:16.804Z,29.758
2023-02-27T00:25:16.901Z,29.756
2023-02-27T00:30:16.751Z,29.759
2023-02-27T00:35:16.759Z,29.757
2023-02-27T00:40:16.776Z,29.757
2023-02-27T00:45:16.772Z,29.760
2023-02-27T00:50:16.841Z,29.759
2023-02-27T00:55:16.895Z,29.763
2023-02-27T01:00:16.934Z,29.764
2023-02-27T01:05:16.924Z,29.767
2023-02-27T01:10:16.901Z,29.770
2023-02-27T01:15:16.861Z,29.761
2023-02-27T01:20:16.996Z,29.764
2023-02-27T01:25:16.928Z,29.766
2023-02-27T01:30:17.060Z,29.766
2023-02-27T01:35:17.052Z,29.767
2023-02-27T01:40:16.930Z,29.770
2023-02-27T01:45:16.925Z,29.769
2023-02-27T01:50:16.916Z,29.770
2023-02-27T01:55:16.939Z,29.771
2023-02-27T02:00:17.203Z,29.775
2023-02-27T02:05:17.121Z,29.772
2023-02-27T02:10:17.062Z,29.773
2023-02-27T02:15:17.263Z,29.774
2023-02-27T02:20:17.041Z,29.776
2023-02-27T02:25:17.021Z,29.779
2023-02-27T02:30:17.040Z,29.783
2023-02-27T02:35:17.099Z,29.788
2023-02-27T02:40:17.077Z,29.781
2023-02-27T02:45:17.128Z,29.784
2023-02-27T02:50:17.186Z,29.787
2023-02-27T02:55:17.220Z,29.787
2023-02-27T03:00:17.064Z,29.792
2023-02-27T03:05:17.060Z,29.788
2023-02-27T03:10:17.344Z,29.788
2023-02-27T03:15:17.143Z,29.789
2023-02-27T03:20:17.197Z,29.788
2023-02-27T03:25:17.157Z,29.790
2023-02-27T03:30:17.183Z,29.795
2023-02-27T03:35:17.181Z,29.790
2023-02-27T03:40:17.227Z,29.792
2023-02-27T03:45:17.317Z,29.793
2023-02-27T03:50:17.383Z,29.794
2023-02-27T03:55:17.136Z,29.796
2023-02-27T04:00:17.292Z,29.798
2023-02-27T04:05:17.252Z,29.803
2023-02-27T04:10:17.352Z,29.802
2023-02-27T04:15:17.397Z,29.799
2023-02-27T04:20:17.281Z,29.799
2023-02-27T04:25:17.262Z,29.796
2023-02-27T04:30:17.279Z,29.797
2023-02-27T04:35:17.383Z,29.798
2023-02-27T04:40:17.341Z,29.805
2023-02-27T04:45:17.609Z,29.808
2023-02-27T04:50:16.284Z,29.809
2023-02-27T04:55:16.388Z,29.810
2023-02-27T05:00:17.529Z,29.809
2023-02-27T05:05:17.391Z,29.811
2023-02-27T05:10:15.424Z,29.811
2023-02-27T05:15:15.417Z,29.812
2023-02-27T05:20:15.431Z,29.818
2023-02-27T05:25:15.605Z,29.819
2023-02-27T05:30:15.398Z,29.820
2023-02-27T05:35:15.563Z,29.824
2023-02-27T05:40:15.488Z,29.822
2023-02-27T05:45:15.693Z,29.824
2023-02-27T05:50:15.429Z,29.828
2023-02-27T05:55:17.746Z,29.824
2023-02-27T06:00:15.648Z,29.822
2023-02-27T06:05:15.741Z,29.823
2023-02-27T06:10:15.548Z,29.824
2023-02-27T06:15:15.581Z,29.830
2023-02-27T06:20:15.484Z,29.829
2023-02-27T06:25:16.527Z,29.833
2023-02-27T06:30:15.589Z,29.840
2023-02-27T06:35:15.681Z,29.843
2023-02-27T06:40:15.646Z,29.843
2023-02-27T06:45:15.595Z,29.842
2023-02-27T06:50:15.583Z,29.842
2023-02-27T06:55:15.669Z,29.845
2023-02-27T07:00:15.635Z,29.849
2023-02-27T07:05:15.601Z,29.850
2023-02-27T07:10:15.857Z,29.847
2023-02-27T07:15:15.742Z,29.849
2023-02-27T07:20:15.654Z,29.857
2023-02-27T07:25:15.777Z,29.857
2023-02-27T07:30:15.743Z,29.855
2023-02-27T07:35:15.750Z,29.855
2023-02-27T07:40:15.876Z,29.850
2023-02-27T07:45:15.697Z,29.850
2023-02-27T07:50:15.800Z,29.852
2023-02-27T07:55:15.708Z,29.852
2023-02-27T08:00:15.794Z,29.853
2023-02-27T08:05:15.908Z,29.856
2023-02-27T08:10:15.754Z,29.856
2023-02-27T08:15:15.873Z,29.867
2023-02-27T08:20:15.840Z,29.868
2023-02-27T08:25:15.821Z,29.874
2023-02-27T08:30:16.008Z,29.874
2023-02-27T08:35:15.977Z,29.874
2023-02-27T08:40:15.819Z,29.873
2023-02-27T08:45:15.912Z,29.881
2023-02-27T08:50:15.920Z,29.881
2023-02-27T08:55:16.850Z,29.884
2023-02-27T09:00:17.099Z,29.890
2023-02-27T09:05:16.942Z,29.891
2023-02-27T09:10:16.949Z,29.897
2023-02-27T09:15:17.066Z,29.899
2023-02-27T09:20:17.084Z,29.904
2023-02-27T09:25:16.953Z,29.909
2023-02-27T09:30:16.983Z,29.912
2023-02-27T09:35:16.957Z,29.915
2023-02-27T09:40:16.995Z,29.916
2023-02-27T09:45:16.892Z,29.924
2023-02-27T09:50:17.025Z,29.929
2023-02-27T09:55:17.023Z,29.933
2023-02-27T10:00:17.067Z,29.933
2023-02-27T10:05:17.045Z,29.939
2023-02-27T10:10:17.047Z,29.940
2023-02-27T10:15:17.184Z,29.943
2023-02-27T10:20:17.024Z,29.946
2023-02-27T10:25:30.276Z,29.950
2023-02-27T10:30:23.489Z,29.952
2023-02-27T10:35:17.107Z,29.956
2023-02-27T10:40:17.120Z,29.957
2023-02-27T10:45:17.239Z,29.957
2023-02-27T10:50:17.222Z,29.956
2023-02-27T10:55:17.167Z,29.957
2023-02-27T11:00:17.152Z,29.961
2023-02-27T11:05:17.198Z,29.961
2023-02-27T11:10:17.235Z,29.960
2023-02-27T11:15:17.150Z,29.961
2023-02-27T11:20:17.302Z,29.964
2023-02-27T11:25:17.230Z,29.968
2023-02-27T11:30:17.514Z,29.974
2023-02-27T11:35:17.206Z,29.973
2023-02-27T11:40:17.399Z,29.976
2023-02-27T11:45:17.218Z,29.982
2023-02-27T11:50:17.396Z,29.980
2023-02-27T11:55:17.209Z,29.986
2023-02-27T12:00:17.270Z,29.989
2023-02-27T12:05:17.330Z,29.990
2023-02-27T12:10:17.495Z,30.000
2023-02-27T12:15:17.284Z,30.002
2023-02-27T12:20:17.346Z,30.004
2023-02-27T12:25:17.395Z,30.003
2023-02-27T12:30:17.322Z,30.002
2023-02-27T12:35:17.401Z,30.009
2023-02-27T12:40:17.400Z,30.008
2023-02-27T12:45:15.577Z,30.008
2023-02-27T12:50:15.375Z,30.008
2023-02-27T12:55:15.385Z,30.009
2023-02-27T13:00:15.511Z,30.007
2023-02-27T13:05:15.458Z,30.010
2023-02-27T13:10:15.567Z,30.014
2023-02-27T13:15:15.427Z,30.015
2023-02-27T13:20:15.706Z,30.022
2023-02-27T13:25:15.490Z,30.021
2023-02-27T13:30:15.650Z,30.022
2023-02-27T13:35:15.490Z,30.024
2023-02-27T13:40:15.692Z,30.027
2023-02-27T13:45:15.655Z,30.029
2023-02-27T13:50:15.504Z,30.033
2023-02-27T13:55:15.618Z,30.037
2023-02-27T14:00:15.592Z,30.041
2023-02-27T14:05:15.579Z,30.045
2023-02-27T14:10:15.610Z,30.054
2023-02-27T14:15:15.644Z,30.055
2023-02-27T14:20:15.623Z,30.056
2023-02-27T14:25:15.574Z,30.050
2023-02-27T14:30:15.830Z,30.056
2023-02-27T14:35:15.625Z,30.053
2023-02-27T14:40:21.301Z,30.053
2023-02-27T14:45:15.640Z,30.052
2023-02-27T14:50:15.712Z,30.047
2023-02-27T14:55:15.637Z,30.043
2023-02-27T15:00:15.749Z,30.038
2023-02-27T15:05:15.730Z,30.035
2023-02-27T15:10:15.778Z,30.035
2023-02-27T15:15:15.831Z,30.039
2023-02-27T15:20:16.669Z,30.042
2023-02-27T15:25:15.738Z,30.043
2023-02-27T15:30:15.756Z,30.044
2023-02-27T15:35:15.760Z,30.044
2023-02-27T15:40:15.803Z,30.049
2023-02-27T15:45:15.870Z,30.042
2023-02-27T15:50:15.949Z,30.041
2023-02-27T15:55:15.730Z,30.041
2023-02-27T16:00:15.794Z,30.043
2023-02-27T16:05:15.936Z,30.050
2023-02-27T16:10:15.868Z,30.052
2023-02-27T16:15:15.853Z,30.059
2023-02-27T16:20:16.378Z,30.057
2023-02-27T16:25:16.189Z,30.047
2023-02-27T16:30:15.876Z,30.049
2023-02-27T16:35:15.893Z,30.044
2023-02-27T16:40:16.085Z,30.043
2023-02-27T16:45:16.187Z,30.044
2023-02-27T16:50:15.977Z,30.047
2023-02-27T16:55:15.935Z,30.042
2023-02-27T17:00:15.907Z,30.035
2023-02-27T17:05:15.984Z,30.036
2023-02-27T17:10:16.016Z,30.036
2023-02-27T17:15:15.989Z,30.035
2023-02-27T17:20:16.147Z,30.031
2023-02-27T17:25:15.993Z,30.029
2023-02-27T17:30:16.077Z,30.034
2023-02-27T17:35:16.020Z,30.031
2023-02-27T17:40:16.260Z,30.029
2023-02-27T17:45:16.031Z,30.032
2023-02-27T17:50:16.108Z,30.035
2023-02-27T17:55:16.013Z,30.037
2023-02-27T18:00:16.143Z,30.036
2023-02-27T18:05:16.047Z,30.037
2023-02-27T18:10:16.173Z,30.039
2023-02-27T18:15:16.211Z,30.037
2023-02-27T18:20:16.134Z,30.033
2023-02-27T18:25:16.830Z,30.031
2023-02-27T18:30:16.165Z,30.028
2023-02-27T18:35:16.354Z,30.028
2023-02-27T18:40:16.157Z,30.024
2023-02-27T18:45:16.185Z,30.018
2023-02-27T18:50:16.251Z,30.011
2023-02-27T18:55:16.187Z,30.007
2023-02-27T19:00:16.310Z,30.017
2023-02-27T19:05:16.258Z,30.011
2023-02-27T19:10:16.237Z,30.013
2023-02-27T19:15:16.318Z,30.012
2023-02-27T19:20:16.258Z,30.014
2023-02-27T19:25:16.268Z,30.021
2023-02-27T19:30:16.652Z,30.022
2023-02-27T19:35:16.310Z,30.020
2023-02-27T19:40:16.248Z,30.019
2023-02-27T19:45:16.421Z,30.023
2023-02-27T19:50:16.367Z,30.025
2023-02-27T19:55:16.274Z,30.024
2023-02-27T20:00:16.373Z,30.021
2023-02-27T20:05:16.363Z,30.021
2023-02-27T20:10:16.374Z,30.020
2023-02-27T20:15:16.406Z,30.014
2023-02-27T20:20:16.674Z,30.012
2023-02-27T20:25:16.545Z,30.010
2023-02-27T20:30:16.409Z,30.010
2023-02-27T20:35:16.408Z,30.009
2023-02-27T20:40:16.484Z,30.016
2023-02-27T20:45:16.459Z,30.014
2023-02-27T20:50:16.477Z,30.015
2023-02-27T20:55:16.468Z,30.011
2023-02-27T21:00:16.679Z,30.013
2023-02-27T21:05:16.552Z,30.009
2023-02-27T21:10:16.517Z,30.010
2023-02-27T21:15:16.662Z,30.009
2023-02-27T21:20:16.541Z,30.012
2023-02-27T21:25:16.494Z,30.012
2023-02-27T21:30:16.490Z,30.014
2023-02-27T21:35:16.553Z,30.015
2023-02-27T21:40:16.772Z,30.020
2023-02-27T21:45:16.529Z,30.020
2023-02-27T21:50:16.713Z,30.019
2023-02-27T21:55:16.620Z,30.021
2023-02-27T22:00:16.629Z,30.017
2023-02-27T22:05:16.818Z,30.014
2023-02-27T22:10:16.659Z,30.015
2023-02-27T22:15:16.641Z,30.015
2023-02-27T22:20:16.659Z,30.009
2023-02-27T22:25:16.816Z,30.010
2023-02-27T22:30:16.705Z,30.016
2023-02-27T22:35:16.662Z,30.016
2023-02-27T22:40:16.672Z,30.021
2023-02-27T22:45:16.776Z,30.022
2023-02-27T22:50:16.741Z,30.025
2023-02-27T22:55:16.804Z,30.022
2023-02-27T23:00:16.947Z,30.030
2023-02-27T23:05:16.748Z,30.030
2023-02-27T23:10:16.787Z,30.025
2023-02-27T23:15:16.801Z,30.024
2023-02-27T23:20:16.850Z,30.021
2023-02-27T23:25:16.846Z,30.019
2023-02-27T23:30:16.754Z,30.022
2023-02-27T23:35:16.945Z,30.021
2023-02-27T23:40:16.945Z,30.016
2023-02-27T23:45:16.872Z,30.008
2023-02-27T23:50:16.956Z,30.003
2023-02-27T23:55:16.930Z,30.001
